Huvudsida
METAR-TAF:

METAR-TAF

Flygplatser :

Bergen, Norge

Bergens flygplats. Flesland

latitud: 60-17N, longitud: 005-14E, höjd: 5 m

Aktuellt väderrapport

Denna rapport gjordes för 28 minuter sedan, klockan 02:50 UTC
Vind 14 kt från syd/sydost
Temperatur 0°C
Fuktighet 93%
Tryck 993 hPa
Sikt: 2500 m
snöbyar

METAR: ENBR 190250Z 15014KT 2500 SHSN VV010 00/M01 Q0993 RMK WIND 1200FT 15023KT

Tid: 04:18 (03:18 UTC)

Väderprognos

Prognos gäller från 19 kl. 02 UTC till 19 kl. 24 UTC
Vind 8 kt från sydost
Sikt 10 km eller mer
Få moln på en höjd av 1500 ft, Cumulonimbus.
Brutna moln på en höjd av 2500 ft
Temporärt
från 19 kl. 02 UTC till 19 kl. 24 UTC
Vind 18 kt från syd/sydost
Sikt: 0800 m
på en höjd av 600 ft
snöbyar, småhagel eller snökorn
Sannolikhet 30% :
Temporärt
från 19 kl. 02 UTC till 19 kl. 24 UTC
åska

TAF: ENBR 1902/1924 14008KT 9999 FEW015CB BKN025 TEMPO 1902/1924 16018KT 0800 SHSNGS VV006 PROB30 TEMPO 1902/1924 TS

Aktuella väderrapporter och prognoser från 4000 flygplatser (METAR- och TAF-rapporter).

De tillgängliga stationerna syns som gula och röda prickar på kartan.

För musen över prickarna för att se namnen på stationerna.

Klicka sedan för att få väderrapporter och prognoser.

För att ändra kartan: Klicka på de gröna knapparna med ett svart kors på för att zooma in; den gröna knappen med ett streck på för att zooma ut; eller på de gröna pilarna för angränsande kartor.


METAR-TAF: